createdAt,value
2022-12-03T00:00:14.230Z,102552.06
2022-12-03T00:02:42.655Z,102547.59
2022-12-03T00:05:11.132Z,102545.84
2022-12-03T00:07:39.425Z,102553.84
2022-12-03T00:10:11.190Z,102546.69
2022-12-03T00:12:39.438Z,102547.59
2022-12-03T00:15:09.369Z,102538.69
2022-12-03T00:17:37.593Z,102544.00
2022-12-03T00:20:07.253Z,102544.00
2022-12-03T00:22:35.647Z,102537.75
2022-12-03T00:25:03.841Z,102541.31
2022-12-03T00:27:33.341Z,102527.94
2022-12-03T00:30:01.474Z,102529.75
2022-12-03T00:32:29.652Z,102528.84
2022-12-03T00:34:57.777Z,102528.84
2022-12-03T00:37:26.075Z,102530.66
2022-12-03T00:39:54.204Z,102531.53
2022-12-03T00:42:22.366Z,102527.97
2022-12-03T00:44:52.289Z,102529.75
2022-12-03T00:47:20.569Z,102529.78
2022-12-03T00:49:48.746Z,102522.72
2022-12-03T00:52:16.867Z,102520.09
2022-12-03T00:54:45.349Z,102516.53
2022-12-03T00:57:13.577Z,102522.75
2022-12-03T00:59:41.719Z,102525.47
2022-12-03T01:02:12.039Z,102525.47
2022-12-03T01:04:40.216Z,102527.28
2022-12-03T01:07:08.432Z,102533.53
2022-12-03T01:09:36.573Z,102527.31
2022-12-03T01:12:05.104Z,102529.03
2022-12-03T01:14:33.246Z,102522.81
2022-12-03T01:17:01.382Z,102511.19
2022-12-03T01:19:30.956Z,102527.22
2022-12-03T01:21:59.098Z,102522.78
2022-12-03T01:24:27.251Z,102514.75
2022-12-03T01:26:55.955Z,102519.19
2022-12-03T01:29:24.370Z,102524.47
2022-12-03T01:32:09.939Z,102519.13
2022-12-03T01:34:39.458Z,102520.00
2022-12-03T01:37:07.596Z,102520.03
2022-12-03T01:39:35.742Z,102518.22
2022-12-03T01:42:04.244Z,102520.03
2022-12-03T01:44:34.183Z,102522.75
2022-12-03T01:47:04.240Z,102520.97
2022-12-03T01:49:40.726Z,102528.16
2022-12-03T01:52:13.196Z,102530.00
2022-12-03T01:54:43.364Z,102518.44
2022-12-03T01:57:19.433Z,102522.03
2022-12-03T01:59:47.860Z,102513.16
2022-12-03T02:02:21.043Z,102521.16
2022-12-03T02:04:49.856Z,102515.84
2022-12-03T02:07:25.435Z,102511.44
2022-12-03T02:09:54.396Z,102511.44
2022-12-03T02:12:26.706Z,102517.63
2022-12-03T02:14:55.615Z,102517.63
2022-12-03T02:17:24.013Z,102518.50
2022-12-03T02:19:52.498Z,102518.53
2022-12-03T02:22:30.148Z,102516.72
2022-12-03T02:25:09.887Z,102516.78
2022-12-03T02:27:38.088Z,102512.34
2022-12-03T02:30:07.732Z,102510.59
2022-12-03T02:32:35.860Z,102515.06
2022-12-03T02:35:04.075Z,102513.28
2022-12-03T02:37:34.071Z,102512.38
2022-12-03T02:40:07.971Z,102515.03
2022-12-03T02:42:37.168Z,102511.47
2022-12-03T02:45:08.390Z,102513.28
2022-12-03T02:47:40.663Z,102511.50
2022-12-03T02:50:10.075Z,102511.50
2022-12-03T02:52:38.469Z,102508.81
2022-12-03T02:55:09.307Z,102506.16
2022-12-03T02:57:39.814Z,102513.28
2022-12-03T03:00:10.576Z,102513.28
2022-12-03T03:02:39.406Z,102511.50
2022-12-03T03:05:09.146Z,102506.16
2022-12-03T03:07:38.012Z,102507.94
2022-12-03T03:10:10.506Z,102507.94
2022-12-03T03:12:39.519Z,102507.03
2022-12-03T03:15:10.083Z,102510.59
2022-12-03T03:17:54.147Z,102510.63
2022-12-03T03:20:22.667Z,102516.84
2022-12-03T03:22:50.772Z,102502.59
2022-12-03T03:25:22.473Z,102499.94
2022-12-03T03:27:50.669Z,102505.28
2022-12-03T03:30:18.886Z,102497.25
2022-12-03T03:32:47.015Z,102504.38
2022-12-03T03:35:15.389Z,102500.84
2022-12-03T03:37:43.648Z,102506.22
2022-12-03T03:40:12.747Z,102500.88
2022-12-03T03:42:42.403Z,102506.25
2022-12-03T03:45:11.156Z,102490.25
2022-12-03T03:47:39.664Z,102492.09
2022-12-03T03:50:10.803Z,102492.13
2022-12-03T03:52:40.066Z,102493.91
2022-12-03T03:55:09.431Z,102488.56
2022-12-03T03:57:37.887Z,102485.91
2022-12-03T04:00:09.408Z,102486.84
2022-12-03T04:02:37.668Z,102477.94
2022-12-03T04:05:07.646Z,102481.50
2022-12-03T04:07:35.887Z,102479.75
2022-12-03T04:10:24.692Z,102487.75
2022-12-03T04:12:57.825Z,102486.88
2022-12-03T04:15:27.889Z,102491.38
2022-12-03T04:18:13.818Z,102474.47
2022-12-03T04:20:41.947Z,102484.28
2022-12-03T04:23:09.320Z,102476.31
2022-12-03T04:25:54.742Z,102476.31
2022-12-03T04:28:40.266Z,102469.22
2022-12-03T04:31:24.419Z,102479.97
2022-12-03T04:34:10.241Z,102472.84
2022-12-03T04:36:38.354Z,102471.16
2022-12-03T04:39:06.535Z,102474.72
2022-12-03T04:41:34.679Z,102476.53
2022-12-03T04:44:20.133Z,102479.19
2022-12-03T04:46:49.661Z,102472.09
2022-12-03T04:49:17.812Z,102476.53
2022-12-03T04:51:45.978Z,102479.19
2022-12-03T04:54:14.421Z,102482.78
2022-12-03T04:56:42.647Z,102478.31
2022-12-03T04:59:15.728Z,102475.66
2022-12-03T05:01:44.977Z,102476.53
2022-12-03T05:04:15.761Z,102472.97
2022-12-03T05:06:44.494Z,102470.31
2022-12-03T05:09:12.983Z,102473.00
2022-12-03T05:11:41.207Z,102466.78
2022-12-03T05:14:09.536Z,102467.63
2022-12-03T05:16:37.955Z,102467.63
2022-12-03T05:19:07.231Z,102454.28
2022-12-03T05:21:35.789Z,102464.09
2022-12-03T05:24:04.106Z,102460.56
2022-12-03T05:26:32.248Z,102461.47
2022-12-03T05:29:00.412Z,102461.53
2022-12-03T05:31:28.618Z,102467.75
2022-12-03T05:33:56.829Z,102473.13
2022-12-03T05:36:25.582Z,102466.91
2022-12-03T05:38:55.135Z,102464.25
2022-12-03T05:41:40.810Z,102457.16
2022-12-03T05:44:08.949Z,102458.03
2022-12-03T05:46:37.113Z,102458.88
2022-12-03T05:49:05.251Z,102454.44
2022-12-03T05:51:33.410Z,102467.75
2022-12-03T05:54:02.944Z,102471.38
2022-12-03T05:56:31.093Z,102461.63
2022-12-03T05:58:59.208Z,102463.41
2022-12-03T06:01:27.333Z,102464.38
2022-12-03T06:03:55.600Z,102466.16
2022-12-03T06:06:23.796Z,102465.28
2022-12-03T06:08:52.009Z,102454.66
2022-12-03T06:11:21.582Z,102452.00
2022-12-03T06:13:49.871Z,102459.13
2022-12-03T06:16:18.037Z,102462.72
2022-12-03T06:18:46.240Z,102461.81
2022-12-03T06:21:14.413Z,102463.56
2022-12-03T06:23:44.791Z,102461.78
2022-12-03T06:26:13.189Z,102465.34
2022-12-03T06:28:46.286Z,102462.69
2022-12-03T06:31:14.589Z,102467.16
2022-12-03T06:33:42.820Z,102454.72
2022-12-03T06:36:11.075Z,102458.28
2022-12-03T06:38:39.437Z,102452.06
2022-12-03T06:41:07.597Z,102452.06
2022-12-03T06:43:35.723Z,102444.97
2022-12-03T06:46:05.475Z,102444.06
2022-12-03T06:48:33.590Z,102443.19
2022-12-03T06:51:01.744Z,102438.72
2022-12-03T06:53:29.874Z,102444.06
2022-12-03T06:55:57.985Z,102440.53
2022-12-03T06:58:26.117Z,102438.75
2022-12-03T07:00:54.267Z,102447.66
2022-12-03T07:03:24.015Z,102436.13
2022-12-03T07:05:52.223Z,102437.00
2022-12-03T07:08:20.397Z,102442.38
2022-12-03T07:10:48.522Z,102439.72
2022-12-03T07:13:16.823Z,102440.59
2022-12-03T07:15:44.995Z,102436.19
2022-12-03T07:18:13.295Z,102429.06
2022-12-03T07:20:42.842Z,102429.94
2022-12-03T07:23:10.958Z,102435.28
2022-12-03T07:25:39.102Z,102428.16
2022-12-03T07:28:07.326Z,102422.84
2022-12-03T07:30:35.454Z,102421.94
2022-12-03T07:33:03.829Z,102425.47
2022-12-03T07:35:32.000Z,102429.91
2022-12-03T07:38:01.545Z,102423.69
2022-12-03T07:40:29.701Z,102425.47
2022-12-03T07:42:57.831Z,102428.09
2022-12-03T07:45:25.979Z,102418.31
2022-12-03T07:47:54.087Z,102424.50
2022-12-03T07:50:22.344Z,102420.97
2022-12-03T07:52:50.527Z,102421.84
2022-12-03T07:55:20.063Z,102428.06
2022-12-03T07:57:48.268Z,102417.38
2022-12-03T08:00:17.254Z,102415.59
2022-12-03T08:02:45.437Z,102412.00
2022-12-03T08:05:13.689Z,102416.44
2022-12-03T08:07:41.881Z,102413.75
2022-12-03T08:10:10.568Z,102408.44
2022-12-03T08:12:43.717Z,102416.47
2022-12-03T08:15:14.393Z,102418.25
2022-12-03T08:17:43.360Z,102415.56
2022-12-03T08:20:18.515Z,102412.88
2022-12-03T08:22:48.362Z,102420.88
2022-12-03T08:25:20.242Z,102420.00
2022-12-03T08:27:49.950Z,102419.13
2022-12-03T08:30:18.922Z,102414.72
2022-12-03T08:32:47.117Z,102412.94
2022-12-03T08:35:22.061Z,102417.44
2022-12-03T08:37:56.977Z,102418.41
2022-12-03T08:40:29.247Z,102414.00
2022-12-03T08:42:58.783Z,102411.38
2022-12-03T08:45:40.970Z,102406.97
2022-12-03T08:48:33.527Z,102404.34
2022-12-03T08:51:04.574Z,102399.03
2022-12-03T08:53:35.004Z,102404.34
2022-12-03T08:56:05.904Z,102405.19
2022-12-03T08:58:42.872Z,102403.41
2022-12-03T09:01:28.384Z,102410.53
2022-12-03T09:03:57.669Z,102400.75
2022-12-03T09:06:25.863Z,102408.78
2022-12-03T09:08:54.000Z,102405.25
2022-12-03T09:11:22.124Z,102402.56
2022-12-03T09:13:51.688Z,102406.13
2022-12-03T09:16:19.926Z,102401.72
2022-12-03T09:18:48.089Z,102405.25
2022-12-03T09:21:16.197Z,102397.25
2022-12-03T09:23:44.330Z,102400.81
2022-12-03T09:26:12.479Z,102393.69
2022-12-03T09:28:40.625Z,102394.59
2022-12-03T09:31:10.107Z,102394.59
2022-12-03T09:33:38.273Z,102391.00
2022-12-03T09:36:06.948Z,102393.69
2022-12-03T09:38:35.245Z,102386.56
2022-12-03T09:41:03.438Z,102387.44
2022-12-03T09:44:02.898Z,102383.88
2022-12-03T09:46:23.749Z,102375.84
2022-12-03T09:48:52.082Z,102377.63
2022-12-03T09:51:20.358Z,102377.59
2022-12-03T09:53:48.706Z,102382.91
2022-12-03T09:56:23.079Z,102373.13
2022-12-03T09:58:51.644Z,102374.84
2022-12-03T10:01:20.005Z,102381.06
2022-12-03T10:03:51.663Z,102369.50
2022-12-03T10:06:21.623Z,102371.28
2022-12-03T10:08:52.401Z,102381.00
2022-12-03T10:11:22.548Z,102364.09
2022-12-03T10:13:51.352Z,102369.44
2022-12-03T10:16:21.302Z,102363.22
2022-12-03T10:18:52.462Z,102352.56
2022-12-03T10:21:24.182Z,102357.94
2022-12-03T10:24:20.523Z,102357.06
2022-12-03T10:26:50.366Z,102351.72
2022-12-03T10:29:20.141Z,102352.63
2022-12-03T10:31:55.751Z,102349.06
2022-12-03T10:34:31.661Z,102348.19
2022-12-03T10:37:12.535Z,102351.72
2022-12-03T10:39:57.945Z,102342.84
2022-12-03T10:42:26.868Z,102341.06
2022-12-03T10:45:19.618Z,102336.59
2022-12-03T10:48:07.055Z,102330.38
2022-12-03T10:50:37.008Z,102333.03
2022-12-03T10:53:06.050Z,102326.81
2022-12-03T10:55:38.760Z,102319.69
2022-12-03T10:58:06.959Z,102323.19
2022-12-03T11:00:35.706Z,102317.84
2022-12-03T11:03:03.914Z,102310.72
2022-12-03T11:05:32.122Z,102313.34
2022-12-03T11:08:01.760Z,102319.50
2022-12-03T11:10:29.985Z,102314.16
2022-12-03T11:13:44.604Z,102310.56
2022-12-03T11:16:13.132Z,102310.56
2022-12-03T11:19:01.418Z,102306.09
2022-12-03T11:21:30.004Z,102302.53
2022-12-03T11:24:22.155Z,102299.84
2022-12-03T11:27:26.866Z,102293.59
2022-12-03T11:30:02.216Z,102293.59
2022-12-03T11:33:09.400Z,102289.13
2022-12-03T11:36:31.807Z,102274.00
2022-12-03T11:39:04.876Z,102281.13
2022-12-03T11:41:35.940Z,102266.94
2022-12-03T11:44:33.774Z,102267.00
2022-12-03T11:47:09.708Z,102260.78
2022-12-03T11:49:45.478Z,102258.94
2022-12-03T11:52:25.176Z,102255.34
2022-12-03T11:54:55.643Z,102251.75
2022-12-03T11:57:31.655Z,102247.25
2022-12-03T12:00:07.554Z,102235.63
2022-12-03T12:02:35.767Z,102239.19
2022-12-03T12:05:22.327Z,102239.19
2022-12-03T12:07:51.001Z,102236.53
2022-12-03T12:10:41.944Z,102236.53
2022-12-03T12:13:49.066Z,102236.59
2022-12-03T12:16:44.654Z,102225.09
2022-12-03T12:19:43.581Z,102216.25
2022-12-03T12:22:20.623Z,102222.53
2022-12-03T12:24:52.370Z,102213.69
2022-12-03T12:27:22.420Z,102209.22
2022-12-03T12:29:57.578Z,102219.88
2022-12-03T12:32:28.949Z,102203.88
2022-12-03T12:35:01.222Z,102210.09
2022-12-03T12:37:35.098Z,102215.41
2022-12-03T12:40:11.100Z,102211.00
2022-12-03T12:42:43.872Z,102213.72
2022-12-03T12:45:18.084Z,102213.72
2022-12-03T12:47:54.633Z,102219.03
2022-12-03T12:50:22.833Z,102198.59
2022-12-03T12:52:56.084Z,102198.63
2022-12-03T12:55:24.383Z,102202.22
2022-12-03T12:57:52.683Z,102206.72
2022-12-03T13:00:24.554Z,102197.88
2022-12-03T13:02:56.029Z,102195.28
2022-12-03T13:05:27.003Z,102194.44
2022-12-03T13:07:55.775Z,102201.56
2022-12-03T13:10:38.888Z,102204.25
2022-12-03T13:13:24.848Z,102201.63
2022-12-03T13:16:02.608Z,102201.72
2022-12-03T13:18:42.529Z,102204.50
2022-12-03T13:21:37.593Z,102201.03
2022-12-03T13:24:27.314Z,102209.09
2022-12-03T13:26:55.615Z,102206.50
2022-12-03T13:29:24.035Z,102198.50
2022-12-03T13:31:55.409Z,102210.06
2022-12-03T13:34:26.064Z,102193.22
2022-12-03T13:36:57.965Z,102181.72
2022-12-03T13:39:30.475Z,102189.72
2022-12-03T13:42:17.460Z,102184.41
2022-12-03T13:44:48.585Z,102177.34
2022-12-03T13:47:20.643Z,102173.78
2022-12-03T13:49:52.942Z,102166.69
2022-12-03T13:52:23.440Z,102180.91
2022-12-03T13:54:53.921Z,102172.00
2022-12-03T13:57:22.090Z,102177.34
2022-12-03T13:59:50.389Z,102180.00
2022-12-03T14:02:19.965Z,102175.53
2022-12-03T14:04:48.238Z,102181.75
2022-12-03T14:07:16.368Z,102172.91
2022-12-03T14:09:44.557Z,102172.00
2022-12-03T14:12:28.898Z,102178.19
2022-12-03T14:14:57.224Z,102175.56
2022-12-03T14:17:26.753Z,102172.00
2022-12-03T14:19:54.984Z,102180.84
2022-12-03T14:22:25.322Z,102186.16
2022-12-03T14:24:54.081Z,102177.25
2022-12-03T14:27:22.785Z,102185.25
2022-12-03T14:29:51.332Z,102182.59
2022-12-03T14:32:19.795Z,102183.47
2022-12-03T14:34:49.624Z,102187.00
2022-12-03T14:37:17.922Z,102192.31
2022-12-03T14:39:46.088Z,102188.75
2022-12-03T14:42:14.268Z,102181.66
2022-12-03T14:44:42.896Z,102183.44
2022-12-03T14:47:11.113Z,102189.66
2022-12-03T14:49:39.290Z,102183.44
2022-12-03T14:52:12.137Z,102175.50
2022-12-03T14:54:42.484Z,102180.88
2022-12-03T14:57:12.367Z,102185.31
2022-12-03T14:59:40.660Z,102180.88
2022-12-03T15:02:09.364Z,102183.53
2022-12-03T15:04:37.583Z,102177.34
2022-12-03T15:07:06.192Z,102182.72
2022-12-03T15:09:36.145Z,102188.91
2022-12-03T15:12:05.250Z,102187.16
2022-12-03T15:14:33.448Z,102180.06
2022-12-03T15:17:01.666Z,102179.19
2022-12-03T15:19:29.911Z,102174.81
2022-12-03T15:21:58.060Z,102177.47
2022-12-03T15:24:26.197Z,102180.13
2022-12-03T15:26:56.087Z,102173.03
2022-12-03T15:29:24.626Z,102173.06
2022-12-03T15:31:52.849Z,102172.16
2022-12-03T15:34:23.105Z,102175.66
2022-12-03T15:36:51.767Z,102169.44
2022-12-03T15:39:19.992Z,102167.66
2022-12-03T15:41:48.184Z,102166.75
2022-12-03T15:44:17.707Z,102160.53
2022-12-03T15:46:45.974Z,102168.50
2022-12-03T15:49:14.307Z,102164.06
2022-12-03T15:51:42.466Z,102171.13
2022-12-03T15:54:12.237Z,102163.13
2022-12-03T15:56:40.525Z,102160.47
2022-12-03T15:59:08.751Z,102164.00
2022-12-03T16:01:38.559Z,102158.66
2022-12-03T16:04:06.769Z,102165.78
2022-12-03T16:06:34.902Z,102152.47
2022-12-03T16:09:03.123Z,102154.22
2022-12-03T16:11:31.352Z,102165.75
2022-12-03T16:13:59.564Z,102164.88
2022-12-03T16:16:27.767Z,102163.97
2022-12-03T16:18:57.364Z,102162.19
2022-12-03T16:21:27.219Z,102158.66
2022-12-03T16:23:56.250Z,102159.56
2022-12-03T16:26:24.433Z,102163.13
2022-12-03T16:28:52.759Z,102160.44
2022-12-03T16:31:21.627Z,102159.56
2022-12-03T16:33:50.213Z,102168.44
2022-12-03T16:36:19.796Z,102155.13
2022-12-03T16:38:47.925Z,102156.03
2022-12-03T16:41:16.051Z,102155.13
2022-12-03T16:43:46.982Z,102149.81
2022-12-03T16:46:26.742Z,102148.91
2022-12-03T16:48:56.450Z,102149.78
2022-12-03T16:51:26.543Z,102148.03
2022-12-03T16:53:54.944Z,102147.13
2022-12-03T16:56:23.092Z,102145.38
2022-12-03T16:58:51.252Z,102148.03
2022-12-03T17:01:19.450Z,102142.69
2022-12-03T17:03:47.706Z,102148.03
2022-12-03T17:06:15.840Z,102149.81
2022-12-03T17:08:49.320Z,102155.13
2022-12-03T17:11:18.822Z,102135.59
2022-12-03T17:13:47.123Z,102127.63
2022-12-03T17:16:15.420Z,102131.16
2022-12-03T17:18:43.781Z,102131.19
2022-12-03T17:21:12.038Z,102127.63
2022-12-03T17:23:40.190Z,102132.09
2022-12-03T17:26:09.738Z,102123.22
2022-12-03T17:28:37.880Z,102125.00
2022-12-03T17:31:06.325Z,102128.53
2022-12-03T17:33:34.473Z,102127.63
2022-12-03T17:36:02.723Z,102128.50
2022-12-03T17:38:37.187Z,102126.72
2022-12-03T17:41:08.210Z,102120.50
2022-12-03T17:43:37.738Z,102120.50
2022-12-03T17:46:06.730Z,102113.38
2022-12-03T17:48:35.543Z,102113.38
2022-12-03T17:51:03.686Z,102118.66
2022-12-03T17:53:31.851Z,102119.56
2022-12-03T17:55:59.988Z,102122.22
2022-12-03T17:58:28.604Z,102125.78
2022-12-03T18:01:02.410Z,102112.47
2022-12-03T18:03:31.698Z,102119.56
2022-12-03T18:06:00.116Z,102122.19
2022-12-03T18:08:28.380Z,102115.09
2022-12-03T18:10:56.834Z,102129.31
2022-12-03T18:13:25.016Z,102126.63
2022-12-03T18:15:53.208Z,102118.66
2022-12-03T18:18:22.834Z,102120.47
2022-12-03T18:20:51.092Z,102110.72
2022-12-03T18:23:19.318Z,102112.50
2022-12-03T18:25:47.489Z,102107.19
2022-12-03T18:28:15.652Z,102099.19
2022-12-03T18:30:49.116Z,102106.31
2022-12-03T18:33:21.312Z,102112.53
2022-12-03T18:35:53.522Z,102107.22
2022-12-03T18:38:22.179Z,102095.66
2022-12-03T18:40:50.903Z,102106.28
2022-12-03T18:43:19.310Z,102105.41
2022-12-03T18:45:47.437Z,102100.09
2022-12-03T18:48:16.684Z,102102.78
2022-12-03T18:50:45.131Z,102101.03
2022-12-03T18:53:16.096Z,102109.03
2022-12-03T18:55:46.248Z,102107.28
2022-12-03T18:58:14.400Z,102104.63
2022-12-03T19:00:42.760Z,102109.97
2022-12-03T19:03:11.142Z,102109.97
2022-12-03T19:05:39.379Z,102111.75
2022-12-03T19:08:14.432Z,102111.72
2022-12-03T19:10:44.367Z,102106.38
2022-12-03T19:13:12.569Z,102113.50
2022-12-03T19:15:41.122Z,102103.75
2022-12-03T19:18:09.276Z,102099.31
2022-12-03T19:20:40.434Z,102106.44
2022-12-03T19:23:08.606Z,102105.56
2022-12-03T19:25:36.972Z,102098.47
2022-12-03T19:28:06.753Z,102101.16
2022-12-03T19:30:34.883Z,102103.84
2022-12-03T19:33:03.049Z,102104.75
2022-12-03T19:35:32.220Z,102107.44
2022-12-03T19:38:00.391Z,102111.91
2022-12-03T19:40:28.546Z,102108.38
2022-12-03T19:42:56.684Z,102106.66
2022-12-03T19:45:26.289Z,102114.63
2022-12-03T19:47:54.461Z,102104.91
2022-12-03T19:50:23.686Z,102111.13
2022-12-03T19:52:52.018Z,102109.34
2022-12-03T19:55:20.669Z,102111.16
2022-12-03T19:57:49.212Z,102105.84
2022-12-03T20:00:17.855Z,102111.19
2022-12-03T20:02:49.154Z,102111.19
2022-12-03T20:05:17.487Z,102112.97
2022-12-03T20:07:46.036Z,102111.19
2022-12-03T20:10:14.251Z,102108.53
2022-12-03T20:12:42.394Z,102113.88
2022-12-03T20:15:11.518Z,102111.22
2022-12-03T20:17:39.733Z,102108.56
2022-12-03T20:20:10.564Z,102117.44
2022-12-03T20:22:38.772Z,102114.78
2022-12-03T20:25:07.899Z,102112.16
2022-12-03T20:27:36.148Z,102115.72
2022-12-03T20:30:05.011Z,102115.72
2022-12-03T20:32:33.267Z,102119.31
2022-12-03T20:35:03.225Z,102116.69
2022-12-03T20:37:36.037Z,102116.72
2022-12-03T20:40:04.680Z,102120.25
2022-12-03T20:42:32.839Z,102115.81
2022-12-03T20:45:00.994Z,102124.69
2022-12-03T20:47:29.167Z,102125.56
2022-12-03T20:49:57.513Z,102114.06
2022-12-03T20:52:25.764Z,102115.88
2022-12-03T20:54:55.275Z,102115.00
2022-12-03T20:57:23.418Z,102111.47
2022-12-03T20:59:52.025Z,102115.91
2022-12-03T21:02:20.630Z,102118.53
2022-12-03T21:04:48.915Z,102112.34
2022-12-03T21:07:17.056Z,102122.09
2022-12-03T21:09:45.203Z,102126.56
2022-12-03T21:12:14.721Z,102123.03
2022-12-03T21:14:42.855Z,102125.69
2022-12-03T21:17:11.066Z,102123.97
2022-12-03T21:19:39.503Z,102119.53
2022-12-03T21:22:08.093Z,102117.81
2022-12-03T21:24:36.272Z,102124.03
2022-12-03T21:27:04.575Z,102130.25
2022-12-03T21:29:34.099Z,102132.06
2022-12-03T21:32:02.245Z,102132.94
2022-12-03T21:34:36.063Z,102132.97
2022-12-03T21:37:05.580Z,102128.56
2022-12-03T21:39:33.723Z,102127.66
2022-12-03T21:42:34.133Z,102126.81
2022-12-03T21:44:51.341Z,102133.00
2022-12-03T21:47:19.613Z,102134.78
2022-12-03T21:49:47.857Z,102135.66
2022-12-03T21:52:15.999Z,102134.78
2022-12-03T21:54:44.312Z,102134.78
2022-12-03T21:57:12.555Z,102151.59
2022-12-03T21:59:40.703Z,102148.97
2022-12-03T22:02:10.602Z,102144.53
2022-12-03T22:04:39.783Z,102148.97
2022-12-03T22:07:07.975Z,102151.63
2022-12-03T22:09:36.274Z,102152.50
2022-12-03T22:12:04.698Z,102148.09
2022-12-03T22:14:32.860Z,102144.56
2022-12-03T22:17:01.008Z,102141.03
2022-12-03T22:19:30.591Z,102145.47
2022-12-03T22:21:58.735Z,102152.56
2022-12-03T22:24:26.863Z,102144.56
2022-12-03T22:26:55.153Z,102152.56
2022-12-03T22:29:23.625Z,102149.00
2022-12-03T22:31:52.069Z,102152.56
2022-12-03T22:34:20.267Z,102144.59
2022-12-03T22:36:49.760Z,102138.41
2022-12-03T22:39:17.943Z,102137.50
2022-12-03T22:41:46.104Z,102144.59
2022-12-03T22:44:14.336Z,102142.84
2022-12-03T22:46:42.633Z,102141.97
2022-12-03T22:49:12.604Z,102141.09
2022-12-03T22:51:40.779Z,102141.06
2022-12-03T22:54:11.602Z,102143.75
2022-12-03T22:56:39.799Z,102151.72
2022-12-03T22:59:08.295Z,102142.88
2022-12-03T23:01:38.651Z,102145.53
2022-12-03T23:04:08.149Z,102151.72
2022-12-03T23:06:37.218Z,102143.75
2022-12-03T23:09:06.759Z,102139.34
2022-12-03T23:11:36.603Z,102145.53
2022-12-03T23:14:04.817Z,102147.28
2022-12-03T23:16:34.128Z,102149.06
2022-12-03T23:19:03.084Z,102141.09
2022-12-03T23:21:33.465Z,102131.34
2022-12-03T23:24:02.813Z,102134.00
2022-12-03T23:26:31.033Z,102136.66
2022-12-03T23:29:00.602Z,102134.00
2022-12-03T23:31:31.527Z,102135.78
2022-12-03T23:34:00.839Z,102131.34
2022-12-03T23:36:30.627Z,102137.53
2022-12-03T23:38:58.803Z,102136.66
2022-12-03T23:41:27.145Z,102132.25
2022-12-03T23:43:55.339Z,102149.94
2022-12-03T23:46:27.416Z,102147.28
2022-12-03T23:48:58.451Z,102147.31
2022-12-03T23:51:27.241Z,102143.75
2022-12-03T23:53:56.099Z,102141.09
2022-12-03T23:56:27.342Z,102146.41
2022-12-03T23:58:55.540Z,102147.28
